Aérodrome :
LOGIN :

S'inscrire | Disclaimer

   EN    FR    IT 

 










Légende :    VFR   VFR Marginal   IFR   IFR Intensif   IFR Très Intensif
Visi : 
Plafond : 
>= 8 km
>= 3000ft
5 à 8 km
1000 à 3000 ft
1500m à 5 km
500 à 1000 ft
800 à 1500m
200 à 500 ft
< 800m
< 200 ft
Symboles :   Orages  Brouillard  Fortes neiges  Fortes précipitations  Vent > 20 kt
SIGMETs :   Divers  Orages  Givrage  Turbulence  Onde Orograph.  Cendres Volcan.






- Altitude de l'aérodrome : 508 ft
- Code IATA : HRK


UKHH - Osnova

DERNIER METAR :
  • 151330Z 14004MPS 5000 -SHSN BR BKN006 BKN031CB M04/M04 Q1006 R07/82//81 NOSIG

METARs EXPIRÉS :
  • 151300Z 16003MPS 6000 BKN005 OVC030 M04/M04 Q1006 R07/82//81 NOSIG
  • 151230Z 20003MPS 6000 OVC004 M03/M04 Q1007 R07/82//81 NOSIG
  • 151200Z 17003MPS 4600 BR OVC004 M04/M04 Q1007 R07/82//81 NOSIG
  • 151130Z 16002MPS 140V200 3700 BR OVC004 M04/M05 Q1007 R07/82//81 NOSIG
  • 151100Z 17002MPS 140V200 3900 BR OVC003 M04/M05 Q1007 R07/82//81 NOSIG

TAF TAF UKHH
Valide du 15 à 12h jusqu'au 16 à 12h UTC


151110Z 1512/1612 17004MPS 2100 BR OVC003 TXM04/1512Z TNM13/1606Z
TEMPO 1512/1517 0600 FZFG OVC002
PROB40
TEMPO 1512/1517 -FZRA
BECMG 1517/1518 26005MPS
TEMPO 1518/1606 0400 -SN FZFG VV001
FIR UKDV / Europe



MET'MAP, la Météo Aéronautique d'un coup d'oeil ! - Copyright ORBIFLY Décembre 2007 - Disclaimer

ORBIFLY MET'MAP TEAM :

Programmation & Développement : Alexandra Zaïnal
Sur une idée originale de : Baudouin d'Aumeries
Assistance à la programmation : Marc-Olivier Méhu
Soutien technique & logistique : Manuel Goepfert

Contact : metmap@orbifly.com




SOURCES & CREDITS :

   NOAA